createdAt,value
2023-03-28T00:03:01.587Z,17.00
2023-03-28T00:06:09.763Z,18.00
2023-03-28T00:09:14.503Z,16.40
2023-03-28T00:12:17.799Z,18.00
2023-03-28T00:15:21.087Z,17.80
2023-03-28T00:18:24.363Z,17.40
2023-03-28T00:21:29.931Z,19.00
2023-03-28T00:24:35.457Z,19.00
2023-03-28T00:27:38.715Z,15.20
2023-03-28T00:30:42.069Z,19.20
2023-03-28T00:33:47.754Z,18.40
2023-03-28T00:36:54.035Z,21.20
2023-03-28T00:39:59.767Z,20.60
2023-03-28T00:43:03.432Z,22.00
2023-03-28T00:46:12.373Z,23.00
2023-03-28T00:49:21.902Z,23.80
2023-03-28T00:52:29.908Z,22.25
2023-03-28T00:55:38.753Z,21.20
2023-03-28T00:58:45.048Z,20.60
2023-03-28T01:01:48.743Z,19.00
2023-03-28T01:04:59.593Z,22.40
2023-03-28T01:08:08.546Z,21.00
2023-03-28T01:11:14.732Z,20.20
2023-03-28T01:14:22.317Z,22.60
2023-03-28T01:17:27.180Z,20.00
2023-03-28T01:20:52.978Z,22.40
2023-03-28T01:24:25.226Z,24.80
2023-03-28T01:27:39.241Z,24.60
2023-03-28T01:31:09.850Z,26.75
2023-03-28T01:34:47.559Z,26.75
2023-03-28T01:38:01.501Z,24.75
2023-03-28T01:41:10.871Z,29.50
2023-03-28T01:44:32.209Z,26.40
2023-03-28T01:47:40.764Z,26.75
2023-03-28T01:50:49.816Z,27.00
2023-03-28T01:54:02.160Z,27.25
2023-03-28T01:57:11.654Z,29.00
2023-03-28T02:00:21.691Z,24.00
2023-03-28T02:03:49.297Z,29.40
2023-03-28T02:07:11.167Z,27.60
2023-03-28T02:10:35.061Z,33.00
2023-03-28T02:13:52.323Z,32.00
2023-03-28T02:17:17.260Z,29.00
2023-03-28T02:20:42.964Z,31.40
2023-03-28T02:24:09.860Z,30.80
2023-03-28T02:27:34.913Z,32.00
2023-03-28T02:30:55.499Z,32.00
2023-03-28T02:33:59.436Z,32.00
2023-03-28T02:37:18.545Z,31.40
2023-03-28T02:40:35.591Z,32.00
2023-03-28T02:43:56.545Z,31.20
2023-03-28T02:47:15.198Z,32.00
2023-03-28T02:50:27.404Z,32.00
2023-03-28T02:53:39.460Z,31.20
2023-03-28T02:56:51.180Z,33.00
2023-03-28T03:00:21.746Z,30.40
2023-03-28T03:03:25.941Z,30.60
2023-03-28T03:06:29.428Z,31.00
2023-03-28T03:09:33.469Z,35.00
2023-03-28T03:12:37.347Z,30.40
2023-03-28T03:15:42.634Z,32.00
2023-03-28T03:19:01.607Z,31.25
2023-03-28T03:22:04.803Z,31.20
2023-03-28T03:25:14.771Z,30.00
2023-03-28T03:28:41.257Z,30.00
2023-03-28T03:31:47.088Z,27.00
2023-03-28T03:35:14.513Z,28.80
2023-03-28T03:38:17.831Z,27.60
2023-03-28T03:41:21.109Z,28.60
2023-03-28T03:44:25.847Z,26.00
2023-03-28T03:47:31.270Z,30.00
2023-03-28T03:50:34.595Z,27.60
2023-03-28T03:53:40.365Z,29.60
2023-03-28T03:56:48.672Z,32.00
2023-03-28T03:59:53.714Z,25.00
2023-03-28T04:02:59.214Z,27.00
2023-03-28T04:06:05.351Z,28.50
2023-03-28T04:09:09.747Z,30.80
2023-03-28T04:12:27.656Z,30.00
2023-03-28T04:15:32.306Z,26.00
2023-03-28T04:18:39.890Z,28.40
2023-03-28T04:21:43.874Z,30.60
2023-03-28T04:24:50.412Z,26.20
2023-03-28T04:28:04.665Z,28.40
2023-03-28T04:31:13.144Z,28.50
2023-03-28T04:34:45.894Z,25.00
2023-03-28T04:37:57.897Z,25.25
2023-03-28T04:41:01.932Z,22.60
2023-03-28T04:44:31.803Z,25.20
2023-03-28T04:47:40.219Z,21.00
2023-03-28T04:50:53.654Z,20.00
2023-03-28T04:53:57.018Z,22.50
2023-03-28T04:57:38.407Z,27.00
2023-03-28T05:00:44.328Z,23.00
2023-03-28T05:04:06.973Z,20.00
2023-03-28T05:07:12.306Z,24.33
2023-03-28T05:10:15.628Z,21.00
2023-03-28T05:13:19.839Z,20.33
2023-03-28T05:16:35.383Z,18.25
2023-03-28T05:20:01.969Z,21.00
2023-03-28T05:23:13.794Z,18.00
2023-03-28T05:26:19.351Z,17.00
2023-03-28T05:29:23.026Z,16.00
2023-03-28T05:32:28.389Z,16.00
2023-03-28T05:35:32.556Z,13.25
2023-03-28T05:38:37.567Z,15.00
2023-03-28T05:41:47.643Z,14.80
2023-03-28T05:44:51.019Z,12.00
2023-03-28T05:48:13.084Z,13.75
2023-03-28T05:51:17.876Z,15.00
2023-03-28T05:54:22.685Z,14.25
2023-03-28T05:57:26.293Z,15.00
2023-03-28T06:00:29.960Z,14.00
2023-03-28T06:03:33.499Z,13.80
2023-03-28T06:06:42.133Z,14.50
2023-03-28T06:09:47.220Z,15.00
2023-03-28T06:12:51.373Z,13.80
2023-03-28T06:15:54.850Z,11.00
2023-03-28T06:19:17.299Z,11.40
2023-03-28T06:22:26.644Z,11.20
2023-03-28T06:25:37.209Z,12.00
2023-03-28T06:28:40.617Z,10.80
2023-03-28T06:31:55.110Z,11.50
2023-03-28T06:34:58.365Z,13.80
2023-03-28T06:38:02.127Z,12.00
2023-03-28T06:41:07.907Z,15.00
2023-03-28T06:44:12.939Z,14.80
2023-03-28T06:47:35.588Z,16.00
2023-03-28T06:50:38.837Z,16.00
2023-03-28T06:53:46.260Z,17.00
2023-03-28T06:56:52.629Z,13.60
2023-03-28T06:59:55.950Z,15.75
2023-03-28T07:03:08.847Z,14.60
2023-03-28T07:06:13.859Z,15.60
2023-03-28T07:09:17.127Z,15.00
2023-03-28T07:12:27.462Z,14.50
2023-03-28T07:15:30.740Z,17.00
2023-03-28T07:18:34.215Z,16.20
2023-03-28T07:21:38.008Z,15.00
2023-03-28T07:24:41.246Z,17.00
2023-03-28T07:27:49.924Z,16.00
2023-03-28T07:30:54.924Z,15.00
2023-03-28T07:33:58.848Z,13.00
2023-03-28T07:37:02.495Z,13.80
2023-03-28T07:40:41.460Z,14.00
2023-03-28T07:43:46.543Z,14.00
2023-03-28T07:46:51.555Z,12.40
2023-03-28T07:49:54.886Z,14.00
2023-03-28T07:53:01.141Z,11.00
2023-03-28T07:56:12.479Z,12.00
2023-03-28T07:59:35.935Z,10.33
2023-03-28T08:02:40.219Z,13.20
2023-03-28T08:05:49.765Z,10.40
2023-03-28T08:08:53.160Z,9.80
2023-03-28T08:12:19.168Z,8.75
2023-03-28T08:15:26.234Z,8.80
2023-03-28T08:18:31.725Z,9.40
2023-03-28T08:21:35.695Z,10.00
2023-03-28T08:24:40.435Z,9.80
2023-03-28T08:27:47.753Z,9.80
2023-03-28T08:30:53.344Z,9.20
2023-03-28T08:33:58.290Z,9.00
2023-03-28T08:37:07.822Z,9.00
2023-03-28T08:40:16.338Z,8.25
2023-03-28T08:43:44.313Z,8.00
2023-03-28T08:46:56.017Z,5.00
2023-03-28T08:50:03.168Z,7.00
2023-03-28T08:53:07.315Z,4.00
2023-03-28T08:56:11.277Z,2.00
2023-03-28T08:59:17.200Z,3.80
2023-03-28T09:02:23.946Z,4.00
2023-03-28T09:05:38.998Z,6.00
2023-03-28T09:09:20.117Z,4.00
2023-03-28T09:12:40.981Z,2.00
2023-03-28T09:16:07.745Z,3.20
2023-03-28T09:19:40.502Z,3.75
2023-03-28T09:23:26.617Z,4.00
2023-03-28T09:26:58.621Z,4.60
2023-03-28T09:30:17.816Z,5.00
2023-03-28T09:33:28.653Z,3.00
2023-03-28T09:36:48.385Z,2.80
2023-03-28T09:39:57.404Z,6.40
2023-03-28T09:43:17.814Z,3.00
2023-03-28T09:46:56.461Z,3.80
2023-03-28T09:50:14.894Z,4.00
2023-03-28T09:53:26.154Z,5.00
2023-03-28T09:56:34.326Z,5.50
2023-03-28T09:59:48.298Z,6.00
2023-03-28T10:02:57.712Z,3.00
2023-03-28T10:06:18.196Z,5.00
2023-03-28T10:09:26.262Z,5.60
2023-03-28T10:12:39.872Z,4.50
2023-03-28T10:15:46.834Z,4.50
2023-03-28T10:18:50.823Z,3.00
2023-03-28T10:22:33.990Z,3.00
2023-03-28T10:25:42.503Z,4.50
2023-03-28T10:28:46.435Z,4.00
2023-03-28T10:31:51.047Z,4.50
2023-03-28T10:35:25.735Z,5.00
2023-03-28T10:38:59.830Z,3.60
2023-03-28T10:42:24.806Z,4.40
2023-03-28T10:45:45.189Z,3.00
2023-03-28T10:48:57.645Z,5.00
2023-03-28T10:52:01.827Z,5.00
2023-03-28T10:55:15.761Z,5.40
2023-03-28T10:58:41.035Z,7.00
2023-03-28T11:02:08.646Z,3.00
2023-03-28T11:05:28.302Z,4.00
2023-03-28T11:08:40.675Z,3.00
2023-03-28T11:11:58.909Z,4.60
2023-03-28T11:15:10.870Z,4.80
2023-03-28T11:18:34.706Z,4.00
2023-03-28T11:21:52.947Z,3.50
2023-03-28T11:25:07.019Z,4.00
2023-03-28T11:28:54.908Z,4.00
2023-03-28T11:32:10.819Z,5.00
2023-03-28T11:35:23.615Z,4.00
2023-03-28T11:38:33.316Z,6.00
2023-03-28T11:41:40.869Z,6.60
2023-03-28T11:45:02.336Z,6.00
2023-03-28T11:48:13.718Z,6.60
2023-03-28T11:51:21.952Z,6.00
2023-03-28T11:54:39.871Z,6.00
2023-03-28T11:58:18.237Z,6.00
2023-03-28T12:09:00.392Z,4.75
2023-03-28T14:18:19.258Z,2.00
2023-03-28T14:21:25.129Z,3.00
2023-03-28T14:24:29.280Z,4.00
2023-03-28T14:27:38.271Z,3.00
2023-03-28T14:30:43.328Z,4.00
2023-03-28T14:33:47.996Z,4.00
2023-03-28T14:36:59.636Z,4.00
2023-03-28T14:40:18.830Z,5.00
2023-03-28T14:43:30.184Z,6.00
2023-03-28T14:46:34.493Z,7.25
2023-03-28T14:49:39.354Z,3.40
2023-03-28T14:52:44.548Z,5.40
2023-03-28T14:55:49.933Z,5.00
2023-03-28T14:58:56.846Z,5.00
2023-03-28T15:02:02.867Z,6.00
2023-03-28T15:05:10.785Z,6.60
2023-03-28T15:08:28.707Z,2.60
2023-03-28T15:11:34.917Z,6.20
2023-03-28T15:14:46.211Z,7.00
2023-03-28T15:17:51.519Z,7.50
2023-03-28T15:21:00.589Z,7.00
2023-03-28T15:24:05.985Z,4.60
2023-03-28T15:27:18.920Z,5.25
2023-03-28T15:30:22.526Z,4.20
2023-03-28T15:33:26.475Z,7.00
2023-03-28T15:40:29.163Z,9.00
2023-03-28T15:43:41.145Z,6.00
2023-03-28T15:46:44.506Z,6.80
2023-03-28T15:49:47.804Z,8.00
2023-03-28T15:56:28.324Z,3.00
2023-03-28T15:59:35.486Z,3.00
2023-03-28T16:29:01.168Z,7.40
2023-03-28T16:32:04.465Z,5.40
2023-03-28T16:35:08.312Z,7.80
2023-03-28T16:53:06.675Z,13.00
2023-03-28T16:56:12.155Z,7.00
2023-03-28T18:12:17.553Z,8.00
2023-03-28T18:15:21.352Z,8.00
2023-03-28T18:18:24.667Z,8.00
2023-03-28T18:21:28.416Z,7.25
2023-03-28T18:24:31.658Z,9.60
2023-03-28T18:27:36.434Z,9.00
2023-03-28T18:30:40.642Z,9.40
2023-03-28T18:33:45.222Z,6.25
2023-03-28T18:36:48.795Z,9.00
2023-03-28T18:39:52.251Z,10.00
2023-03-28T18:42:57.180Z,11.75
2023-03-28T18:46:01.002Z,11.00
2023-03-28T18:49:04.576Z,13.00
2023-03-28T18:52:10.632Z,9.67
2023-03-28T18:55:14.377Z,10.00
2023-03-28T18:58:18.961Z,6.75
2023-03-28T19:01:23.310Z,10.00
2023-03-28T19:04:27.556Z,11.60
2023-03-28T19:07:31.117Z,10.00
2023-03-28T19:10:34.418Z,9.80
2023-03-28T19:13:39.244Z,9.00
2023-03-28T19:16:42.524Z,11.60
2023-03-28T19:19:46.312Z,10.20
2023-03-28T19:22:49.635Z,11.00
2023-03-28T19:25:53.308Z,11.00
2023-03-28T19:28:57.884Z,9.00
2023-03-28T19:32:01.166Z,12.00
2023-03-28T19:35:04.564Z,11.00
2023-03-28T19:38:08.788Z,10.60
2023-03-28T19:41:17.896Z,11.00
2023-03-28T19:44:22.837Z,11.00
2023-03-28T19:47:26.409Z,11.00
2023-03-28T19:50:30.328Z,13.00
2023-03-28T19:53:33.509Z,11.75
2023-03-28T19:56:36.883Z,9.20
2023-03-28T19:59:41.574Z,12.50
2023-03-28T20:02:44.973Z,9.40
2023-03-28T20:05:49.541Z,10.80
2023-03-28T20:08:53.145Z,12.00
2023-03-28T20:11:56.347Z,10.80
2023-03-28T20:15:01.360Z,8.80
2023-03-28T20:18:05.081Z,12.25
2023-03-28T20:21:10.756Z,11.00
2023-03-28T20:24:14.461Z,10.00
2023-03-28T20:27:18.221Z,16.40
2023-03-28T20:30:23.023Z,14.00
2023-03-28T20:33:27.149Z,16.00
2023-03-28T20:36:32.822Z,18.00
2023-03-28T20:39:37.117Z,12.00
2023-03-28T20:42:41.003Z,14.50
2023-03-28T20:45:49.977Z,15.50
2023-03-28T20:48:56.839Z,11.75
2023-03-28T20:52:00.238Z,17.20
2023-03-28T20:55:03.429Z,18.00
2023-03-28T20:58:06.809Z,15.00
2023-03-28T21:01:13.565Z,12.50
2023-03-28T21:04:17.155Z,13.00
2023-03-28T21:07:22.409Z,16.00
2023-03-28T21:10:25.660Z,13.20
2023-03-28T21:13:28.926Z,13.00
2023-03-28T21:16:34.060Z,13.20
2023-03-28T21:19:37.313Z,12.80
2023-03-28T21:22:40.623Z,14.20
2023-03-28T21:25:45.368Z,15.25
2023-03-28T21:28:49.519Z,16.60
2023-03-28T21:31:54.162Z,14.00
2023-03-28T21:34:57.619Z,11.75
2023-03-28T21:38:01.061Z,14.00
2023-03-28T21:41:05.051Z,14.00
2023-03-28T21:44:08.294Z,14.00
2023-03-28T21:47:13.291Z,13.40
2023-03-28T21:50:16.878Z,10.80
2023-03-28T21:53:21.691Z,15.50
2023-03-28T21:56:24.964Z,14.20
2023-03-28T21:59:28.206Z,12.20
2023-03-28T22:02:33.082Z,12.00
2023-03-28T22:05:42.679Z,9.00
2023-03-28T22:08:52.005Z,18.60
2023-03-28T22:11:56.442Z,15.00
2023-03-28T22:14:59.912Z,13.00
2023-03-28T22:18:09.213Z,14.00
2023-03-28T22:21:14.154Z,11.00
2023-03-28T22:24:18.323Z,11.50
2023-03-28T22:27:22.687Z,12.80
